sensor_id;sensor_type;location;lat;lon;timestamp;pressure;altitude;pressure_sealevel;temperature;humidity
71165;BME280;58859;55.132;-1.586;2024-02-26T00:01:27;100446.66;;;12.93;100.00
71165;BME280;58859;55.132;-1.586;2024-02-26T00:03:53;100456.00;;;13.26;100.00
71165;BME280;58859;55.132;-1.586;2024-02-26T00:06:20;100469.78;;;13.43;100.00
71165;BME280;58859;55.132;-1.586;2024-02-26T00:08:45;100463.22;;;13.55;100.00
71165;BME280;58859;55.132;-1.586;2024-02-26T00:11:11;100470.78;;;12.95;100.00
71165;BME280;58859;55.132;-1.586;2024-02-26T00:13:36;100475.72;;;13.37;100.00
71165;BME280;58859;55.132;-1.586;2024-02-26T00:16:03;100473.66;;;13.24;100.00
71165;BME280;58859;55.132;-1.586;2024-02-26T00:18:29;100480.00;;;13.30;100.00
71165;BME280;58859;55.132;-1.586;2024-02-26T00:20:54;100489.47;;;13.61;100.00
71165;BME280;58859;55.132;-1.586;2024-02-26T00:23:20;100483.09;;;13.64;100.00
71165;BME280;58859;55.132;-1.586;2024-02-26T00:25:45;100491.50;;;13.74;100.00
71165;BME280;58859;55.132;-1.586;2024-02-26T00:28:11;100491.63;;;13.80;100.00
71165;BME280;58859;55.132;-1.586;2024-02-26T00:30:38;100491.78;;;13.56;100.00
71165;BME280;58859;55.132;-1.586;2024-02-26T00:33:03;100493.72;;;13.85;100.00
71165;BME280;58859;55.132;-1.586;2024-02-26T00:35:28;100501.44;;;13.09;100.00
71165;BME280;58859;55.132;-1.586;2024-02-26T00:37:54;100500.59;;;13.24;100.00
71165;BME280;58859;55.132;-1.586;2024-02-26T00:40:20;100501.66;;;13.69;100.00
71165;BME280;58859;55.132;-1.586;2024-02-26T00:42:45;100511.84;;;13.64;100.00
71165;BME280;58859;55.132;-1.586;2024-02-26T00:45:14;100518.81;;;13.71;100.00
71165;BME280;58859;55.132;-1.586;2024-02-26T00:47:41;100517.84;;;13.72;100.00
71165;BME280;58859;55.132;-1.586;2024-02-26T00:50:08;100528.16;;;13.66;100.00
71165;BME280;58859;55.132;-1.586;2024-02-26T00:52:34;100523.50;;;13.53;100.00
71165;BME280;58859;55.132;-1.586;2024-02-26T00:54:59;100532.13;;;13.54;100.00
71165;BME280;58859;55.132;-1.586;2024-02-26T00:57:25;100529.91;;;12.31;100.00
71165;BME280;58859;55.132;-1.586;2024-02-26T00:59:50;100538.00;;;12.04;100.00
71165;BME280;58859;55.132;-1.586;2024-02-26T01:02:16;100541.16;;;12.56;100.00
71165;BME280;58859;55.132;-1.586;2024-02-26T01:04:41;100536.38;;;13.16;100.00
71165;BME280;58859;55.132;-1.586;2024-02-26T01:07:07;100529.91;;;13.35;100.00
71165;BME280;58859;55.132;-1.586;2024-02-26T01:09:32;100543.97;;;13.34;100.00
71165;BME280;58859;55.132;-1.586;2024-02-26T01:11:58;100549.78;;;12.81;100.00
71165;BME280;58859;55.132;-1.586;2024-02-26T01:14:23;100540.25;;;13.67;100.00
71165;BME280;58859;55.132;-1.586;2024-02-26T01:16:49;100547.31;;;13.58;100.00
71165;BME280;58859;55.132;-1.586;2024-02-26T01:19:14;100555.63;;;13.93;100.00
71165;BME280;58859;55.132;-1.586;2024-02-26T01:21:40;100561.34;;;13.57;100.00
71165;BME280;58859;55.132;-1.586;2024-02-26T01:24:06;100560.06;;;13.45;100.00
71165;BME280;58859;55.132;-1.586;2024-02-26T01:26:32;100563.81;;;12.47;100.00
71165;BME280;58859;55.132;-1.586;2024-02-26T01:28:57;100573.72;;;13.08;100.00
71165;BME280;58859;55.132;-1.586;2024-02-26T01:31:23;100577.47;;;13.22;100.00
71165;BME280;58859;55.132;-1.586;2024-02-26T01:33:48;100578.97;;;13.63;100.00
71165;BME280;58859;55.132;-1.586;2024-02-26T01:36:13;100585.63;;;13.27;100.00
71165;BME280;58859;55.132;-1.586;2024-02-26T01:38:39;100579.09;;;13.70;100.00
71165;BME280;58859;55.132;-1.586;2024-02-26T01:41:04;100583.66;;;13.76;100.00
71165;BME280;58859;55.132;-1.586;2024-02-26T01:43:30;100589.44;;;13.55;100.00
71165;BME280;58859;55.132;-1.586;2024-02-26T01:45:55;100598.03;;;13.17;100.00
71165;BME280;58859;55.132;-1.586;2024-02-26T01:48:21;100597.03;;;13.42;100.00
71165;BME280;58859;55.132;-1.586;2024-02-26T01:50:46;100589.59;;;13.54;100.00
71165;BME280;58859;55.132;-1.586;2024-02-26T01:53:12;100604.00;;;13.50;100.00
71165;BME280;58859;55.132;-1.586;2024-02-26T01:55:38;100601.94;;;13.76;100.00
71165;BME280;58859;55.132;-1.586;2024-02-26T01:58:04;100599.13;;;13.47;100.00
71165;BME280;58859;55.132;-1.586;2024-02-26T02:00:30;100609.47;;;13.16;100.00
71165;BME280;58859;55.132;-1.586;2024-02-26T02:02:55;100616.13;;;13.35;100.00
71165;BME280;58859;55.132;-1.586;2024-02-26T02:05:22;100618.28;;;13.15;100.00
71165;BME280;58859;55.132;-1.586;2024-02-26T02:07:48;100619.94;;;13.08;100.00
71165;BME280;58859;55.132;-1.586;2024-02-26T02:10:15;100624.25;;;13.56;100.00
71165;BME280;58859;55.132;-1.586;2024-02-26T02:12:41;100625.16;;;11.93;100.00
71165;BME280;58859;55.132;-1.586;2024-02-26T02:15:06;100635.97;;;11.73;100.00
71165;BME280;58859;55.132;-1.586;2024-02-26T02:17:32;100621.88;;;13.22;100.00
71165;BME280;58859;55.132;-1.586;2024-02-26T02:19:58;100639.16;;;13.39;100.00
71165;BME280;58859;55.132;-1.586;2024-02-26T02:22:23;100644.38;;;12.75;100.00
71165;BME280;58859;55.132;-1.586;2024-02-26T02:24:50;100638.03;;;13.17;100.00
71165;BME280;58859;55.132;-1.586;2024-02-26T02:27:15;100642.41;;;12.52;100.00
71165;BME280;58859;55.132;-1.586;2024-02-26T02:29:42;100649.28;;;12.78;100.00
71165;BME280;58859;55.132;-1.586;2024-02-26T02:32:08;100645.53;;;12.96;100.00
71165;BME280;58859;55.132;-1.586;2024-02-26T02:34:34;100655.94;;;12.56;100.00
71165;BME280;58859;55.132;-1.586;2024-02-26T02:36:59;100656.19;;;12.21;100.00
71165;BME280;58859;55.132;-1.586;2024-02-26T02:39:25;100667.34;;;12.63;100.00
71165;BME280;58859;55.132;-1.586;2024-02-26T02:41:50;100666.06;;;12.75;100.00
71165;BME280;58859;55.132;-1.586;2024-02-26T02:44:16;100667.03;;;12.66;100.00
71165;BME280;58859;55.132;-1.586;2024-02-26T02:46:41;100667.94;;;12.25;100.00
71165;BME280;58859;55.132;-1.586;2024-02-26T02:49:10;100683.28;;;12.36;100.00
71165;BME280;58859;55.132;-1.586;2024-02-26T02:51:36;100676.25;;;12.20;100.00
71165;BME280;58859;55.132;-1.586;2024-02-26T02:54:02;100683.09;;;11.62;100.00
71165;BME280;58859;55.132;-1.586;2024-02-26T02:56:27;100681.75;;;11.06;100.00
71165;BME280;58859;55.132;-1.586;2024-02-26T02:58:53;100690.72;;;11.29;100.00
71165;BME280;58859;55.132;-1.586;2024-02-26T03:01:18;100704.09;;;12.12;100.00
71165;BME280;58859;55.132;-1.586;2024-02-26T03:03:43;100709.47;;;12.18;100.00
71165;BME280;58859;55.132;-1.586;2024-02-26T03:06:09;100705.53;;;12.80;100.00
71165;BME280;58859;55.132;-1.586;2024-02-26T03:08:34;100708.56;;;11.93;100.00
71165;BME280;58859;55.132;-1.586;2024-02-26T03:11:03;100701.81;;;13.07;100.00
71165;BME280;58859;55.132;-1.586;2024-02-26T03:13:29;100707.22;;;13.05;100.00
71165;BME280;58859;55.132;-1.586;2024-02-26T03:15:54;100712.91;;;12.93;100.00
71165;BME280;58859;55.132;-1.586;2024-02-26T03:18:20;100712.13;;;13.08;100.00
71165;BME280;58859;55.132;-1.586;2024-02-26T03:20:45;100718.84;;;13.19;100.00
71165;BME280;58859;55.132;-1.586;2024-02-26T03:23:11;100720.56;;;11.86;100.00
71165;BME280;58859;55.132;-1.586;2024-02-26T03:25:44;100719.72;;;12.61;100.00
71165;BME280;58859;55.132;-1.586;2024-02-26T03:28:11;100727.75;;;12.26;100.00
71165;BME280;58859;55.132;-1.586;2024-02-26T03:30:37;100731.50;;;11.90;100.00
71165;BME280;58859;55.132;-1.586;2024-02-26T03:33:03;100736.19;;;11.86;100.00
71165;BME280;58859;55.132;-1.586;2024-02-26T03:35:28;100745.59;;;12.05;100.00
71165;BME280;58859;55.132;-1.586;2024-02-26T03:37:54;100732.97;;;12.26;100.00
71165;BME280;58859;55.132;-1.586;2024-02-26T03:40:19;100754.56;;;12.44;100.00
71165;BME280;58859;55.132;-1.586;2024-02-26T03:42:45;100750.66;;;11.81;100.00
71165;BME280;58859;55.132;-1.586;2024-02-26T03:45:10;100755.25;;;11.87;100.00
71165;BME280;58859;55.132;-1.586;2024-02-26T03:47:38;100761.56;;;12.10;100.00
71165;BME280;58859;55.132;-1.586;2024-02-26T03:50:05;100765.59;;;12.30;100.00
71165;BME280;58859;55.132;-1.586;2024-02-26T03:52:32;100765.03;;;11.67;100.00
71165;BME280;58859;55.132;-1.586;2024-02-26T03:54:57;100765.91;;;12.27;100.00
71165;BME280;58859;55.132;-1.586;2024-02-26T03:57:23;100764.72;;;12.22;100.00
71165;BME280;58859;55.132;-1.586;2024-02-26T03:59:48;100775.44;;;12.10;100.00
71165;BME280;58859;55.132;-1.586;2024-02-26T04:02:14;100785.34;;;12.07;100.00
71165;BME280;58859;55.132;-1.586;2024-02-26T04:04:39;100798.38;;;11.81;100.00
71165;BME280;58859;55.132;-1.586;2024-02-26T04:07:05;100803.63;;;12.15;100.00
71165;BME280;58859;55.132;-1.586;2024-02-26T04:09:33;100807.81;;;12.34;100.00
71165;BME280;58859;55.132;-1.586;2024-02-26T04:11:58;100817.22;;;10.32;100.00
71165;BME280;58859;55.132;-1.586;2024-02-26T04:14:24;100814.09;;;10.56;100.00
71165;BME280;58859;55.132;-1.586;2024-02-26T04:16:49;100818.44;;;10.92;100.00
71165;BME280;58859;55.132;-1.586;2024-02-26T04:19:17;100804.66;;;11.35;100.00
71165;BME280;58859;55.132;-1.586;2024-02-26T04:21:43;100813.09;;;12.16;100.00
71165;BME280;58859;55.132;-1.586;2024-02-26T04:24:09;100806.50;;;12.30;100.00
71165;BME280;58859;55.132;-1.586;2024-02-26T04:26:34;100830.88;;;12.21;100.00
71165;BME280;58859;55.132;-1.586;2024-02-26T04:29:00;100829.00;;;12.05;100.00
71165;BME280;58859;55.132;-1.586;2024-02-26T04:31:25;100832.34;;;12.49;100.00
71165;BME280;58859;55.132;-1.586;2024-02-26T04:33:51;100828.50;;;11.40;100.00
71165;BME280;58859;55.132;-1.586;2024-02-26T04:36:17;100833.41;;;11.43;100.00
71165;BME280;58859;55.132;-1.586;2024-02-26T04:38:43;100831.41;;;12.24;100.00
71165;BME280;58859;55.132;-1.586;2024-02-26T04:41:09;100830.31;;;12.35;100.00
71165;BME280;58859;55.132;-1.586;2024-02-26T04:43:34;100833.09;;;12.07;100.00
71165;BME280;58859;55.132;-1.586;2024-02-26T04:45:59;100837.94;;;12.28;100.00
71165;BME280;58859;55.132;-1.586;2024-02-26T04:48:26;100844.16;;;12.35;100.00
71165;BME280;58859;55.132;-1.586;2024-02-26T04:50:51;100846.47;;;12.13;100.00
71165;BME280;58859;55.132;-1.586;2024-02-26T04:53:17;100852.25;;;11.98;100.00
71165;BME280;58859;55.132;-1.586;2024-02-26T04:55:42;100861.00;;;11.36;100.00
71165;BME280;58859;55.132;-1.586;2024-02-26T04:58:08;100858.91;;;11.58;100.00
71165;BME280;58859;55.132;-1.586;2024-02-26T05:00:33;100855.63;;;11.55;100.00
71165;BME280;58859;55.132;-1.586;2024-02-26T05:02:58;100860.56;;;11.76;100.00
71165;BME280;58859;55.132;-1.586;2024-02-26T05:05:24;100874.44;;;11.14;100.00
71165;BME280;58859;55.132;-1.586;2024-02-26T05:07:50;100882.94;;;12.30;100.00
71165;BME280;58859;55.132;-1.586;2024-02-26T05:10:15;100884.97;;;11.40;100.00
71165;BME280;58859;55.132;-1.586;2024-02-26T05:12:41;100888.19;;;11.24;100.00
71165;BME280;58859;55.132;-1.586;2024-02-26T05:15:08;100885.44;;;12.14;100.00
71165;BME280;58859;55.132;-1.586;2024-02-26T05:17:34;100898.59;;;11.07;100.00
71165;BME280;58859;55.132;-1.586;2024-02-26T05:19:59;100896.41;;;11.47;100.00
71165;BME280;58859;55.132;-1.586;2024-02-26T05:22:24;100906.22;;;11.35;100.00
71165;BME280;58859;55.132;-1.586;2024-02-26T05:24:50;100895.38;;;11.40;100.00
71165;BME280;58859;55.132;-1.586;2024-02-26T05:27:16;100895.97;;;11.34;100.00
71165;BME280;58859;55.132;-1.586;2024-02-26T05:29:42;100907.09;;;11.71;100.00
71165;BME280;58859;55.132;-1.586;2024-02-26T05:32:07;100908.59;;;11.02;100.00
71165;BME280;58859;55.132;-1.586;2024-02-26T05:34:33;100912.59;;;11.86;100.00
71165;BME280;58859;55.132;-1.586;2024-02-26T05:36:58;100915.22;;;11.41;100.00
71165;BME280;58859;55.132;-1.586;2024-02-26T05:39:24;100914.78;;;12.16;100.00
71165;BME280;58859;55.132;-1.586;2024-02-26T05:41:49;100916.16;;;12.02;100.00
71165;BME280;58859;55.132;-1.586;2024-02-26T05:44:14;100926.00;;;11.91;100.00
71165;BME280;58859;55.132;-1.586;2024-02-26T05:46:41;100936.66;;;11.97;100.00
71165;BME280;58859;55.132;-1.586;2024-02-26T05:49:07;100942.13;;;12.12;100.00
71165;BME280;58859;55.132;-1.586;2024-02-26T05:51:32;100939.91;;;12.17;100.00
71165;BME280;58859;55.132;-1.586;2024-02-26T05:53:58;100954.84;;;11.17;100.00
71165;BME280;58859;55.132;-1.586;2024-02-26T05:56:23;100947.63;;;12.09;100.00
71165;BME280;58859;55.132;-1.586;2024-02-26T05:58:49;100955.97;;;11.32;100.00
71165;BME280;58859;55.132;-1.586;2024-02-26T06:01:17;100965.19;;;11.54;100.00
71165;BME280;58859;55.132;-1.586;2024-02-26T06:03:43;100963.09;;;11.85;100.00
71165;BME280;58859;55.132;-1.586;2024-02-26T06:06:10;100967.22;;;11.78;100.00
71165;BME280;58859;55.132;-1.586;2024-02-26T06:08:36;100973.94;;;11.98;100.00
71165;BME280;58859;55.132;-1.586;2024-02-26T06:11:05;100969.22;;;11.48;100.00
71165;BME280;58859;55.132;-1.586;2024-02-26T06:13:32;100986.16;;;11.35;100.00
71165;BME280;58859;55.132;-1.586;2024-02-26T06:15:57;100987.88;;;11.71;100.00
71165;BME280;58859;55.132;-1.586;2024-02-26T06:18:22;101002.13;;;11.67;100.00
71165;BME280;58859;55.132;-1.586;2024-02-26T06:20:48;101002.09;;;12.12;100.00
71165;BME280;58859;55.132;-1.586;2024-02-26T06:23:13;101006.81;;;11.36;100.00
71165;BME280;58859;55.132;-1.586;2024-02-26T06:25:39;101012.38;;;11.51;100.00
71165;BME280;58859;55.132;-1.586;2024-02-26T06:28:05;101021.25;;;11.31;100.00
71165;BME280;58859;55.132;-1.586;2024-02-26T06:30:30;101022.88;;;11.86;100.00
71165;BME280;58859;55.132;-1.586;2024-02-26T06:32:55;101019.44;;;12.03;100.00
71165;BME280;58859;55.132;-1.586;2024-02-26T06:35:21;101026.38;;;11.77;100.00
71165;BME280;58859;55.132;-1.586;2024-02-26T06:37:46;101028.56;;;11.18;100.00
71165;BME280;58859;55.132;-1.586;2024-02-26T06:40:12;101026.75;;;12.18;100.00
71165;BME280;58859;55.132;-1.586;2024-02-26T06:42:37;101037.41;;;12.24;100.00
71165;BME280;58859;55.132;-1.586;2024-02-26T06:45:04;101050.91;;;12.20;100.00
71165;BME280;58859;55.132;-1.586;2024-02-26T06:47:29;101054.94;;;12.14;100.00
71165;BME280;58859;55.132;-1.586;2024-02-26T06:49:55;101053.22;;;12.05;100.00
71165;BME280;58859;55.132;-1.586;2024-02-26T06:52:23;101048.81;;;12.23;100.00
71165;BME280;58859;55.132;-1.586;2024-02-26T06:54:50;101051.72;;;12.20;100.00
71165;BME280;58859;55.132;-1.586;2024-02-26T06:57:16;101060.53;;;12.37;100.00
71165;BME280;58859;55.132;-1.586;2024-02-26T06:59:41;101061.56;;;12.87;100.00
71165;BME280;58859;55.132;-1.586;2024-02-26T07:02:11;101062.66;;;12.59;100.00
71165;BME280;58859;55.132;-1.586;2024-02-26T07:04:36;101062.91;;;12.30;100.00
71165;BME280;58859;55.132;-1.586;2024-02-26T07:07:02;101072.66;;;12.10;100.00
71165;BME280;58859;55.132;-1.586;2024-02-26T07:09:27;101074.88;;;12.41;100.00
71165;BME280;58859;55.132;-1.586;2024-02-26T07:11:53;101094.09;;;12.04;100.00
71165;BME280;58859;55.132;-1.586;2024-02-26T07:14:18;101088.91;;;12.22;100.00
71165;BME280;58859;55.132;-1.586;2024-02-26T07:16:44;101089.63;;;12.32;100.00
71165;BME280;58859;55.132;-1.586;2024-02-26T07:19:09;101101.31;;;11.56;100.00
71165;BME280;58859;55.132;-1.586;2024-02-26T07:21:34;101101.66;;;11.80;100.00
71165;BME280;58859;55.132;-1.586;2024-02-26T07:24:00;101098.84;;;12.09;100.00
71165;BME280;58859;55.132;-1.586;2024-02-26T07:26:25;101111.91;;;12.09;100.00
71165;BME280;58859;55.132;-1.586;2024-02-26T07:28:51;101120.94;;;11.50;100.00
71165;BME280;58859;55.132;-1.586;2024-02-26T07:31:20;101120.06;;;12.41;100.00
71165;BME280;58859;55.132;-1.586;2024-02-26T07:33:45;101119.09;;;12.42;100.00
71165;BME280;58859;55.132;-1.586;2024-02-26T07:36:12;101127.19;;;12.22;100.00
71165;BME280;58859;55.132;-1.586;2024-02-26T07:38:37;101129.16;;;11.92;100.00
71165;BME280;58859;55.132;-1.586;2024-02-26T07:41:03;101144.88;;;12.28;100.00
71165;BME280;58859;55.132;-1.586;2024-02-26T07:43:28;101136.06;;;12.46;100.00
71165;BME280;58859;55.132;-1.586;2024-02-26T07:45:54;101145.63;;;12.55;100.00
71165;BME280;58859;55.132;-1.586;2024-02-26T07:48:19;101144.38;;;13.03;100.00
71165;BME280;58859;55.132;-1.586;2024-02-26T07:50:45;101152.72;;;12.45;100.00
71165;BME280;58859;55.132;-1.586;2024-02-26T07:53:10;101152.34;;;12.58;100.00
71165;BME280;58859;55.132;-1.586;2024-02-26T07:55:36;101161.28;;;12.55;100.00
71165;BME280;58859;55.132;-1.586;2024-02-26T07:58:01;101158.94;;;12.17;100.00
71165;BME280;58859;55.132;-1.586;2024-02-26T08:00:27;101160.75;;;12.69;100.00
71165;BME280;58859;55.132;-1.586;2024-02-26T08:02:52;101168.84;;;12.14;100.00
71165;BME280;58859;55.132;-1.586;2024-02-26T08:05:18;101166.97;;;12.24;100.00
71165;BME280;58859;55.132;-1.586;2024-02-26T08:07:43;101172.09;;;12.60;100.00
71165;BME280;58859;55.132;-1.586;2024-02-26T08:10:09;101184.88;;;11.26;100.00
71165;BME280;58859;55.132;-1.586;2024-02-26T08:12:35;101181.66;;;12.25;100.00
71165;BME280;58859;55.132;-1.586;2024-02-26T08:15:00;101181.75;;;12.33;100.00
71165;BME280;58859;55.132;-1.586;2024-02-26T08:17:26;101187.09;;;12.14;100.00
71165;BME280;58859;55.132;-1.586;2024-02-26T08:19:52;101192.97;;;12.96;100.00
71165;BME280;58859;55.132;-1.586;2024-02-26T08:22:17;101187.41;;;12.01;100.00
71165;BME280;58859;55.132;-1.586;2024-02-26T08:24:43;101200.88;;;12.68;100.00
71165;BME280;58859;55.132;-1.586;2024-02-26T08:27:09;101198.16;;;12.25;100.00
71165;BME280;58859;55.132;-1.586;2024-02-26T08:29:34;101209.88;;;11.65;100.00
71165;BME280;58859;55.132;-1.586;2024-02-26T08:32:00;101203.63;;;11.48;100.00
71165;BME280;58859;55.132;-1.586;2024-02-26T08:34:25;101200.16;;;12.94;100.00
71165;BME280;58859;55.132;-1.586;2024-02-26T08:36:51;101208.69;;;12.24;100.00
71165;BME280;58859;55.132;-1.586;2024-02-26T08:39:17;101205.72;;;12.81;100.00
71165;BME280;58859;55.132;-1.586;2024-02-26T08:41:43;101195.78;;;12.49;100.00
71165;BME280;58859;55.132;-1.586;2024-02-26T08:44:09;101210.72;;;12.75;100.00
71165;BME280;58859;55.132;-1.586;2024-02-26T08:46:35;101213.44;;;12.83;100.00
71165;BME280;58859;55.132;-1.586;2024-02-26T08:49:00;101212.81;;;12.89;100.00
71165;BME280;58859;55.132;-1.586;2024-02-26T08:51:26;101215.19;;;13.00;100.00
71165;BME280;58859;55.132;-1.586;2024-02-26T08:53:51;101229.50;;;12.43;100.00
71165;BME280;58859;55.132;-1.586;2024-02-26T08:56:17;101219.75;;;12.98;100.00
71165;BME280;58859;55.132;-1.586;2024-02-26T08:58:43;101222.31;;;13.07;100.00
71165;BME280;58859;55.132;-1.586;2024-02-26T09:01:09;101230.06;;;12.37;100.00
71165;BME280;58859;55.132;-1.586;2024-02-26T09:03:34;101236.69;;;12.31;100.00
71165;BME280;58859;55.132;-1.586;2024-02-26T09:05:59;101235.22;;;12.46;100.00
71165;BME280;58859;55.132;-1.586;2024-02-26T09:08:25;101241.53;;;12.89;100.00
71165;BME280;58859;55.132;-1.586;2024-02-26T09:10:50;101242.69;;;12.59;100.00
71165;BME280;58859;55.132;-1.586;2024-02-26T09:13:16;101246.72;;;12.26;100.00
71165;BME280;58859;55.132;-1.586;2024-02-26T09:15:41;101247.88;;;12.14;100.00
71165;BME280;58859;55.132;-1.586;2024-02-26T09:18:07;101254.28;;;12.47;100.00
71165;BME280;58859;55.132;-1.586;2024-02-26T09:20:32;101250.22;;;12.07;100.00
71165;BME280;58859;55.132;-1.586;2024-02-26T09:22:57;101253.38;;;12.83;100.00
71165;BME280;58859;55.132;-1.586;2024-02-26T09:25:23;101258.63;;;12.01;100.00
71165;BME280;58859;55.132;-1.586;2024-02-26T09:27:48;101257.97;;;12.27;100.00
71165;BME280;58859;55.132;-1.586;2024-02-26T09:30:14;101264.59;;;12.48;100.00
71165;BME280;58859;55.132;-1.586;2024-02-26T09:32:40;101259.06;;;12.96;100.00
71165;BME280;58859;55.132;-1.586;2024-02-26T09:35:06;101263.91;;;13.44;100.00
71165;BME280;58859;55.132;-1.586;2024-02-26T09:37:32;101246.25;;;14.81;100.00
71165;BME280;58859;55.132;-1.586;2024-02-26T09:39:58;101261.50;;;14.78;100.00
71165;BME280;58859;55.132;-1.586;2024-02-26T09:42:27;101262.94;;;13.97;100.00
71165;BME280;58859;55.132;-1.586;2024-02-26T09:44:55;101264.28;;;13.75;100.00
71165;BME280;58859;55.132;-1.586;2024-02-26T09:47:25;101272.72;;;13.25;100.00
71165;BME280;58859;55.132;-1.586;2024-02-26T09:49:53;101274.88;;;12.50;100.00
71165;BME280;58859;55.132;-1.586;2024-02-26T09:52:19;101274.78;;;12.42;100.00
71165;BME280;58859;55.132;-1.586;2024-02-26T09:54:48;101278.44;;;12.76;100.00
71165;BME280;58859;55.132;-1.586;2024-02-26T09:57:15;101287.84;;;13.14;100.00
71165;BME280;58859;55.132;-1.586;2024-02-26T09:59:42;101271.84;;;12.99;100.00
71165;BME280;58859;55.132;-1.586;2024-02-26T10:02:12;101289.53;;;11.68;100.00
71165;BME280;58859;55.132;-1.586;2024-02-26T10:04:42;101285.78;;;12.63;100.00
71165;BME280;58859;55.132;-1.586;2024-02-26T10:07:12;101299.38;;;12.39;100.00
71165;BME280;58859;55.132;-1.586;2024-02-26T10:09:38;101301.75;;;13.22;100.00
71165;BME280;58859;55.132;-1.586;2024-02-26T10:12:04;101303.56;;;12.77;100.00
71165;BME280;58859;55.132;-1.586;2024-02-26T10:14:30;101294.03;;;14.00;100.00
71165;BME280;58859;55.132;-1.586;2024-02-26T10:16:56;101302.97;;;12.65;100.00
71165;BME280;58859;55.132;-1.586;2024-02-26T10:19:26;101302.88;;;13.38;100.00
71165;BME280;58859;55.132;-1.586;2024-02-26T10:21:59;101312.50;;;13.55;100.00
71165;BME280;58859;55.132;-1.586;2024-02-26T10:24:29;101310.38;;;13.33;100.00
71165;BME280;58859;55.132;-1.586;2024-02-26T10:26:55;101321.56;;;12.53;100.00
71165;BME280;58859;55.132;-1.586;2024-02-26T10:29:23;101321.31;;;12.46;100.00
71165;BME280;58859;55.132;-1.586;2024-02-26T10:31:50;101330.59;;;13.03;100.00
71165;BME280;58859;55.132;-1.586;2024-02-26T10:34:17;101329.75;;;13.12;100.00
71165;BME280;58859;55.132;-1.586;2024-02-26T10:36:42;101323.66;;;12.94;100.00
71165;BME280;58859;55.132;-1.586;2024-02-26T10:39:09;101322.38;;;13.08;100.00
71165;BME280;58859;55.132;-1.586;2024-02-26T10:41:36;101328.59;;;13.68;100.00
71165;BME280;58859;55.132;-1.586;2024-02-26T10:44:02;101323.63;;;14.00;100.00
71165;BME280;58859;55.132;-1.586;2024-02-26T10:46:27;101324.75;;;17.20;100.00
71165;BME280;58859;55.132;-1.586;2024-02-26T10:48:54;101324.47;;;15.83;100.00
71165;BME280;58859;55.132;-1.586;2024-02-26T10:51:27;101318.25;;;15.76;100.00
71165;BME280;58859;55.132;-1.586;2024-02-26T10:53:56;101323.03;;;14.82;100.00
71165;BME280;58859;55.132;-1.586;2024-02-26T10:56:26;101336.69;;;14.00;100.00
71165;BME280;58859;55.132;-1.586;2024-02-26T10:58:53;101329.53;;;13.23;100.00
71165;BME280;58859;55.132;-1.586;2024-02-26T11:01:19;101345.47;;;13.48;100.00
71165;BME280;58859;55.132;-1.586;2024-02-26T11:03:47;101336.72;;;13.39;100.00
71165;BME280;58859;55.132;-1.586;2024-02-26T11:06:14;101338.41;;;14.77;100.00
71165;BME280;58859;55.132;-1.586;2024-02-26T11:08:40;101340.75;;;14.88;100.00
71165;BME280;58859;55.132;-1.586;2024-02-26T11:11:06;101343.25;;;14.56;100.00
71165;BME280;58859;55.132;-1.586;2024-02-26T11:13:33;101350.69;;;15.67;100.00
71165;BME280;58859;55.132;-1.586;2024-02-26T11:16:00;101358.47;;;16.39;100.00
71165;BME280;58859;55.132;-1.586;2024-02-26T11:18:27;101350.66;;;17.32;100.00
71165;BME280;58859;55.132;-1.586;2024-02-26T11:20:54;101357.13;;;17.21;100.00
71165;BME280;58859;55.132;-1.586;2024-02-26T11:23:22;101357.56;;;16.16;100.00
71165;BME280;58859;55.132;-1.586;2024-02-26T11:25:50;101366.94;;;14.96;100.00
71165;BME280;58859;55.132;-1.586;2024-02-26T11:28:18;101366.94;;;14.96;100.00
71165;BME280;58859;55.132;-1.586;2024-02-26T11:30:47;101382.84;;;14.53;100.00
71165;BME280;58859;55.132;-1.586;2024-02-26T11:33:15;101388.16;;;14.43;100.00
71165;BME280;58859;55.132;-1.586;2024-02-26T11:35:40;101391.66;;;14.85;100.00
71165;BME280;58859;55.132;-1.586;2024-02-26T11:38:06;101408.53;;;14.14;100.00
71165;BME280;58859;55.132;-1.586;2024-02-26T11:40:33;101401.66;;;13.69;100.00
71165;BME280;58859;55.132;-1.586;2024-02-26T11:43:03;101401.97;;;14.27;100.00
71165;BME280;58859;55.132;-1.586;2024-02-26T11:48:04;101403.47;;;13.69;100.00
71165;BME280;58859;55.132;-1.586;2024-02-26T11:50:34;101409.41;;;13.97;100.00
71165;BME280;58859;55.132;-1.586;2024-02-26T11:53:26;101413.19;;;13.59;100.00
71165;BME280;58859;55.132;-1.586;2024-02-26T11:58:42;101419.19;;;14.56;100.00
71165;BME280;58859;55.132;-1.586;2024-02-26T12:01:46;101435.13;;;13.83;100.00
71165;BME280;58859;55.132;-1.586;2024-02-26T12:04:24;101443.94;;;13.20;100.00
71165;BME280;58859;55.132;-1.586;2024-02-26T12:06:56;101436.69;;;13.94;100.00
71165;BME280;58859;55.132;-1.586;2024-02-26T12:09:35;101441.63;;;13.17;100.00
71165;BME280;58859;55.132;-1.586;2024-02-26T12:12:03;101438.53;;;12.94;100.00
71165;BME280;58859;55.132;-1.586;2024-02-26T12:14:29;101444.75;;;13.83;100.00
71165;BME280;58859;55.132;-1.586;2024-02-26T12:16:55;101442.41;;;13.27;100.00
71165;BME280;58859;55.132;-1.586;2024-02-26T12:19:22;101439.28;;;13.41;100.00
71165;BME280;58859;55.132;-1.586;2024-02-26T12:21:51;101439.03;;;14.23;100.00
71165;BME280;58859;55.132;-1.586;2024-02-26T12:24:18;101452.00;;;15.68;100.00
71165;BME280;58859;55.132;-1.586;2024-02-26T12:26:45;101445.53;;;14.96;100.00
71165;BME280;58859;55.132;-1.586;2024-02-26T12:29:11;101444.72;;;15.45;100.00
71165;BME280;58859;55.132;-1.586;2024-02-26T12:31:37;101446.47;;;15.21;100.00